CYRQ

Trois-Rivières Airport

Airport
ICAO code
CYRQ
IATA Code
YRQ
Summary
ICAO Region
NAM
ICAO Territory
Location

Trois-Rivières, Quebec

Serving
Trois-Rivières
Elevation
199 ft
Coordinates
46° 21' 6" N , 72° 40' 50" W
KCC
Metar
Observation
CYRQ 092000Z AUTO 35012G20KT 9SM CLR M06/M12 A3049 RMK SLP330
Station
Trois-Rivières Airport
Date/Time
2022-12-09 20:00:00
Wind direction
350°
Wind speed
12 kts
Lowest cloud amount
n/a
Temperature
-6°C
Dew point
-12°C
Humidity
62%
Weather condition
n/a

Trois-Rivières Airport is located near the city of Trois-Rivières, Quebec, Canada.

Climatology

Humid continental climate (Köppen climate classification Dfb)

Runways

Designator Length Width Surface Rops
5/23 1829 46 ASP No/No

Airport map

Aerial View

SKYbrary Partners:

Safety knowledge contributed by: